Time;durP1;ratioP1;P1;durP2;ratioP2;P2;SDS_P1;SDS_P2;PMS_P1;PMS_P2;Temp;Humidity;BMP_temperature;BMP_pressure;BME280_temperature;BME280_humidity;BME280_pressure;Samples;Min_cycle;Max_cycle;Signal;HPM_P1;HPM_P2
2023/08/15 00:00:24;;;;;;;;;;;;;;;21.18;76.31;95392.47;5115877;28;1020;-56
2023/08/15 00:02:50;;;;;;;;;;;;;;;20.96;77.64;95391.19;5115912;28;1039;-56
2023/08/15 00:05:16;;;;;;;;;;;;;;;20.67;78.48;95397.00;5135141;27;2525;-57
2023/08/15 00:07:42;;;;;;;;;;;;;;;20.78;77.38;95392.78;5136488;27;965;-56
2023/08/15 00:10:08;;;;;;;;;;;;;;;20.83;77.52;95387.53;5136414;27;964;-57
2023/08/15 00:12:34;;;;;;;;;;;;;;;20.69;77.87;95391.38;5135673;27;2807;-57
2023/08/15 00:15:00;;;;;;;;;;;;;;;20.56;78.99;95392.25;5133434;27;2843;-57
2023/08/15 00:17:25;;;;;;;;;;;;;;;20.75;77.63;95379.63;5136398;27;2001;-56
2023/08/15 00:19:51;;;;;;;;;;;;;;;20.75;78.27;95389.66;5127152;27;2975;-56
2023/08/15 00:22:18;;;;;;;;;;;;;;;20.41;79.33;95387.13;5136019;27;1027;-56
2023/08/15 00:24:44;;;;;;;;;;;;;;;20.35;79.66;95393.41;5136038;27;1062;-56
2023/08/15 00:27:10;;;;;;;;;;;;;;;20.65;77.47;95385.53;5135897;27;925;-56
2023/08/15 00:29:35;;;;;;;;;;;;;;;20.76;77.10;95380.47;5135887;27;1048;-56
2023/08/15 00:32:01;;;;;;;;;;;;;;;20.65;77.76;95387.44;5134914;27;1021;-56
2023/08/15 00:34:27;;;;;;;;;;;;;;;20.31;79.31;95384.03;5135963;27;957;-57
2023/08/15 00:36:53;;;;;;;;;;;;;;;20.40;78.47;95377.28;5135676;27;1998;-56
2023/08/15 00:39:19;;;;;;;;;;;;;;;20.61;77.48;95378.06;5135801;27;1047;-56
2023/08/15 00:41:45;;;;;;;;;;;;;;;20.89;75.87;95372.22;5135931;27;1201;-56
2023/08/15 00:44:11;;;;;;;;;;;;;;;20.81;76.60;95367.91;5116779;27;2705;-57
2023/08/15 00:46:38;;;;;;;;;;;;;;;20.69;77.00;95368.81;5115256;28;983;-57
2023/08/15 00:49:05;;;;;;;;;;;;;;;20.65;76.35;95363.81;5115328;28;1277;-57
2023/08/15 00:51:32;;;;;;;;;;;;;;;20.67;76.05;95363.59;5114838;27;1091;-56
2023/08/15 00:53:58;;;;;;;;;;;;;;;20.63;76.57;95357.75;5130191;27;3044;-56
2023/08/15 00:56:25;;;;;;;;;;;;;;;20.60;76.41;95360.94;5135394;27;1890;-57
2023/08/15 00:58:51;;;;;;;;;;;;;;;20.28;77.33;95352.72;5135384;27;995;-57
2023/08/15 01:01:17;;;;;;;;;;;;;;;20.11;78.27;95343.41;5134840;27;969;-57
2023/08/15 01:03:43;;;;;;;;;;;;;;;20.20;78.34;95343.97;5135186;27;1049;-57
2023/08/15 01:06:09;;;;;;;;;;;;;;;20.31;78.28;95340.59;5135396;27;1032;-57
2023/08/15 01:08:35;;;;;;;;;;;;;;;20.39;78.21;95337.59;5135217;27;1011;-57
2023/08/15 01:11:01;;;;;;;;;;;;;;;20.54;76.45;95342.75;5135100;27;965;-57
2023/08/15 01:13:39;;;;;;;;;;;;;;;20.56;76.06;95342.53;5134997;27;1163;-56
2023/08/15 01:16:07;;;;;;;;;;;;;;;20.71;75.17;95337.66;5135331;27;981;-57
2023/08/15 01:18:37;;;;;;;;;;;;;;;21.15;70.99;95344.00;5135083;27;1028;-56
2023/08/15 01:21:03;;;;;;;;;;;;;;;21.47;69.31;95335.78;5116934;27;1569;-57
2023/08/15 01:23:37;;;;;;;;;;;;;;;21.50;69.69;95343.50;5114568;28;1098;-57
2023/08/15 01:26:03;;;;;;;;;;;;;;;21.09;72.24;95336.72;5114631;28;1035;-56
2023/08/15 01:28:29;;;;;;;;;;;;;;;20.84;74.82;95334.81;5114452;28;1188;-57
2023/08/15 01:30:56;;;;;;;;;;;;;;;20.75;73.70;95330.72;5114508;28;1024;-57
2023/08/15 01:33:30;;;;;;;;;;;;;;;20.91;74.34;95334.78;5114432;28;1038;-57
2023/08/15 01:36:01;;;;;;;;;;;;;;;20.95;74.13;95329.75;5114249;28;967;-57
2023/08/15 01:38:27;;;;;;;;;;;;;;;20.72;75.60;95336.59;5114021;28;1965;-57
2023/08/15 01:40:55;;;;;;;;;;;;;;;20.56;75.93;95326.22;5114077;28;1060;-56
2023/08/15 01:43:22;;;;;;;;;;;;;;;20.35;77.44;95317.38;5114199;28;1038;-57
2023/08/15 01:45:48;;;;;;;;;;;;;;;20.40;76.74;95317.56;5114344;28;1060;-57
2023/08/15 01:48:14;;;;;;;;;;;;;;;20.25;78.06;95314.31;5114981;28;2712;-57
2023/08/15 01:50:40;;;;;;;;;;;;;;;20.02;78.35;95314.84;5133913;27;2816;-57
2023/08/15 01:53:06;;;;;;;;;;;;;;;20.19;77.08;95309.75;5134427;27;925;-57
2023/08/15 01:55:32;;;;;;;;;;;;;;;20.34;75.70;95310.28;5134345;27;1075;-56
2023/08/15 01:57:58;;;;;;;;;;;;;;;20.46;74.80;95310.41;5134263;27;1905;-57
2023/08/15 02:00:24;;;;;;;;;;;;;;;20.18;77.69;95308.91;5134244;27;1044;-57
2023/08/15 02:02:50;;;;;;;;;;;;;;;20.11;78.00;95302.69;5134398;28;1040;-57
2023/08/15 02:05:16;;;;;;;;;;;;;;;19.95;78.88;95312.16;5134253;28;1095;-57
2023/08/15 02:07:42;;;;;;;;;;;;;;;19.64;80.43;95312.88;5134296;27;1851;-57
2023/08/15 02:10:08;;;;;;;;;;;;;;;19.51;81.50;95313.75;5134212;28;1048;-57
2023/08/15 02:12:34;;;;;;;;;;;;;;;19.50;81.01;95306.66;5118709;27;2617;-57
2023/08/15 02:15:02;;;;;;;;;;;;;;;19.44;82.04;95307.50;5118077;27;1044;-57
2023/08/15 02:17:28;;;;;;;;;;;;;;;19.47;81.33;95309.81;5116974;28;1988;-58
2023/08/15 02:19:54;;;;;;;;;;;;;;;19.49;80.77;95294.16;5126168;27;1279;-57
2023/08/15 02:22:20;;;;;;;;;;;;;;;19.60;79.27;95301.63;5138566;27;1990;-57
2023/08/15 02:24:46;;;;;;;;;;;;;;;19.49;80.47;95299.56;5137443;27;1007;-57
2023/08/15 02:27:12;;;;;;;;;;;;;;;19.41;80.95;95297.94;5138337;27;1039;-56
2023/08/15 02:29:38;;;;;;;;;;;;;;;19.50;80.11;95301.22;5138527;27;1044;-55
2023/08/15 02:32:04;;;;;;;;;;;;;;;19.54;79.85;95297.06;5137042;27;2428;-56
2023/08/15 02:34:30;;;;;;;;;;;;;;;19.46;81.06;95291.84;5138456;27;961;-56
2023/08/15 02:36:56;;;;;;;;;;;;;;;19.48;79.64;95292.47;5138070;27;1929;-57
2023/08/15 02:39:22;;;;;;;;;;;;;;;19.62;78.98;95296.00;5138122;27;1098;-56
2023/08/15 02:41:48;;;;;;;;;;;;;;;19.58;79.38;95292.88;5138115;27;1082;-56
2023/08/15 02:44:14;;;;;;;;;;;;;;;19.63;78.61;95294.94;5138117;27;976;-57
2023/08/15 02:46:39;;;;;;;;;;;;;;;19.45;80.10;95295.63;5125139;27;2953;-57
2023/08/15 02:49:05;;;;;;;;;;;;;;;19.48;79.13;95297.88;5117276;28;1059;-56
2023/08/15 02:51:31;;;;;;;;;;;;;;;19.39;79.91;95291.88;5128628;27;3177;-56
2023/08/15 02:53:57;;;;;;;;;;;;;;;19.35;79.85;95297.94;5138132;27;1014;-56
2023/08/15 02:56:23;;;;;;;;;;;;;;;19.21;80.91;95291.72;5137649;27;1986;-57
2023/08/15 02:58:50;;;;;;;;;;;;;;;19.21;80.69;95297.97;5137643;27;1173;-57
2023/08/15 03:01:16;;;;;;;;;;;;;;;19.34;80.10;95301.69;5137740;27;1279;-56
2023/08/15 03:03:42;;;;;;;;;;;;;;;19.41;80.12;95303.34;5137732;27;1073;-57
2023/08/15 03:06:08;;;;;;;;;;;;;;;19.47;78.58;95302.50;5136697;27;959;-55
2023/08/15 03:08:34;;;;;;;;;;;;;;;19.39;79.32;95297.31;5137436;27;1106;-57
2023/08/15 03:11:00;;;;;;;;;;;;;;;19.05;81.53;95298.41;5137547;27;1027;-57
2023/08/15 03:13:26;;;;;;;;;;;;;;;18.77;83.06;95302.16;5137391;27;1991;-57
2023/08/15 03:15:53;;;;;;;;;;;;;;;18.96;81.30;95303.22;5137696;27;977;-57
2023/08/15 03:18:19;;;;;;;;;;;;;;;19.11;80.97;95311.13;5137247;27;1905;-58
2023/08/15 03:20:54;;;;;;;;;;;;;;;18.99;81.32;95305.50;5136262;27;2000;-57
2023/08/15 03:23:20;;;;;;;;;;;;;;;18.94;82.04;95304.47;5137121;27;1122;-57
2023/08/15 03:25:53;;;;;;;;;;;;;;;18.86;82.67;95310.94;5136681;27;1031;-57
2023/08/15 03:28:19;;;;;;;;;;;;;;;18.66;84.00;95319.84;5137366;27;2103;-56
2023/08/15 03:30:45;;;;;;;;;;;;;;;18.79;82.93;95319.03;5137133;27;1114;-56
2023/08/15 03:33:10;;;;;;;;;;;;;;;18.84;82.67;95316.56;5137400;27;1019;-58
2023/08/15 03:35:43;;;;;;;;;;;;;;;18.78;82.66;95314.66;5135754;27;1111;-57
2023/08/15 03:38:09;;;;;;;;;;;;;;;18.81;82.61;95308.84;5137272;27;2012;-57
2023/08/15 03:40:35;;;;;;;;;;;;;;;18.82;82.90;95310.53;5137279;27;1039;-57
2023/08/15 03:43:00;;;;;;;;;;;;;;;18.72;82.76;95310.06;5137106;27;1048;-58
2023/08/15 03:45:28;;;;;;;;;;;;;;;18.67;84.11;95309.88;5136828;27;1091;-58
2023/08/15 03:47:54;;;;;;;;;;;;;;;18.63;84.12;95306.72;5137155;27;973;-57
2023/08/15 03:50:20;;;;;;;;;;;;;;;18.64;83.79;95310.25;5136559;27;1628;-57
2023/08/15 03:52:46;;;;;;;;;;;;;;;18.60;84.20;95314.44;5136895;27;1661;-57
2023/08/15 03:55:12;;;;;;;;;;;;;;;18.55;83.92;95317.75;5136932;27;994;-58
2023/08/15 03:57:38;;;;;;;;;;;;;;;18.63;83.71;95308.59;5135323;27;1988;-56
2023/08/15 04:00:05;;;;;;;;;;;;;;;18.73;83.99;95326.09;5136842;27;961;-58
2023/08/15 04:02:31;;;;;;;;;;;;;;;18.61;83.33;95316.94;5136666;27;2021;-56
2023/08/15 04:04:57;;;;;;;;;;;;;;;18.95;81.71;95323.19;5136444;27;999;-57
2023/08/15 04:07:23;;;;;;;;;;;;;;;18.99;82.26;95320.91;5136610;27;1063;-56
2023/08/15 04:09:48;;;;;;;;;;;;;;;19.14;81.61;95324.22;5136694;27;968;-57
2023/08/15 04:12:15;;;;;;;;;;;;;;;19.21;81.92;95314.22;5136360;27;1040;-57
2023/08/15 04:14:41;;;;;;;;;;;;;;;19.34;81.08;95315.25;5124982;27;2514;-57
2023/08/15 04:17:07;;;;;;;;;;;;;;;19.39;81.07;95316.28;5115660;28;1894;-57
2023/08/15 04:19:33;;;;;;;;;;;;;;;19.34;82.85;95317.97;5120570;27;1719;-56
2023/08/15 04:21:59;;;;;;;;;;;;;;;19.29;80.21;95324.00;5136114;27;1032;-57
2023/08/15 04:24:25;;;;;;;;;;;;;;;19.43;79.17;95322.13;5123125;27;2749;-58
2023/08/15 04:26:51;;;;;;;;;;;;;;;19.57;79.36;95322.91;5115755;28;996;-56
2023/08/15 04:29:16;;;;;;;;;;;;;;;19.56;82.20;95326.66;5115348;28;953;-56
2023/08/15 04:31:42;;;;;;;;;;;;;;;19.56;80.44;95327.50;5115434;28;988;-57
2023/08/15 04:34:08;;;;;;;;;;;;;;;19.82;80.34;95336.63;5115252;27;1055;-57
2023/08/15 04:36:34;;;;;;;;;;;;;;;20.15;77.73;95332.97;5114239;28;1990;-57
2023/08/15 04:39:01;;;;;;;;;;;;;;;20.76;75.06;95331.56;5115454;28;1059;-56
2023/08/15 04:41:27;;;;;;;;;;;;;;;21.27;70.66;95330.50;5115089;28;1877;-56
2023/08/15 04:43:53;;;;;;;;;;;;;;;21.48;69.48;95333.91;5115109;28;1035;-57
2023/08/15 04:46:19;;;;;;;;;;;;;;;21.53;69.92;95329.47;5114971;28;1047;-56
2023/08/15 04:48:45;;;;;;;;;;;;;;;21.66;69.69;95343.97;5114856;28;1016;-56
2023/08/15 04:51:11;;;;;;;;;;;;;;;21.74;69.24;95338.22;5115331;28;1055;-56
2023/08/15 04:53:37;;;;;;;;;;;;;;;21.85;66.60;95334.72;5115071;28;1028;-56
2023/08/15 04:56:03;;;;;;;;;;;;;;;22.00;64.28;95332.44;5114858;28;1114;-56
2023/08/15 04:58:29;;;;;;;;;;;;;;;22.17;63.76;95334.56;5114647;28;1992;-56
2023/08/15 05:00:55;;;;;;;;;;;;;;;22.30;61.07;95331.69;5114758;28;1051;-57
2023/08/15 05:03:21;;;;;;;;;;;;;;;22.41;62.56;95335.53;5114976;28;1250;-56
2023/08/15 05:05:47;;;;;;;;;;;;;;;22.50;63.11;95336.03;5114733;28;976;-55
2023/08/15 05:08:13;;;;;;;;;;;;;;;22.70;62.44;95342.03;5114562;28;1239;-56
2023/08/15 05:10:39;;;;;;;;;;;;;;;22.89;60.14;95339.25;5113422;28;1091;-56
2023/08/15 05:13:05;;;;;;;;;;;;;;;22.97;59.41;95330.72;5114570;28;1032;-56
2023/08/15 05:15:31;;;;;;;;;;;;;;;23.07;58.65;95341.06;5114571;28;1049;-56
2023/08/15 05:17:57;;;;;;;;;;;;;;;23.16;59.88;95334.19;5114385;28;1988;-55
2023/08/15 05:20:23;;;;;;;;;;;;;;;23.25;60.66;95340.97;5126863;27;1635;-55
2023/08/15 05:22:49;;;;;;;;;;;;;;;23.37;59.67;95340.97;5135249;27;979;-56
2023/08/15 05:25:15;;;;;;;;;;;;;;;23.41;58.37;95347.66;5134810;27;1043;-56
2023/08/15 05:27:41;;;;;;;;;;;;;;;23.49;57.16;95347.28;5135199;27;975;-57
2023/08/15 05:30:07;;;;;;;;;;;;;;;23.53;59.31;95350.38;5134927;27;976;-56
2023/08/15 05:32:34;;;;;;;;;;;;;;;23.47;56.81;95346.69;5134622;27;1134;-57
2023/08/15 05:34:59;;;;;;;;;;;;;;;23.62;57.00;95348.09;5135003;27;971;-57
2023/08/15 05:37:25;;;;;;;;;;;;;;;23.84;57.12;95348.34;5134512;27;1902;-56
2023/08/15 05:39:51;;;;;;;;;;;;;;;23.86;56.97;95343.47;5134821;27;977;-55
2023/08/15 05:42:17;;;;;;;;;;;;;;;24.05;56.51;95346.88;5134626;27;1095;-56
2023/08/15 05:44:45;;;;;;;;;;;;;;;24.24;57.48;95347.56;5134893;27;1018;-57
2023/08/15 05:47:11;;;;;;;;;;;;;;;24.37;56.81;95344.53;5133150;27;1040;-57
2023/08/15 05:49:37;;;;;;;;;;;;;;;24.32;54.63;95342.56;5128918;27;3104;-56
2023/08/15 05:52:03;;;;;;;;;;;;;;;24.42;53.77;95343.81;5114276;28;965;-57
2023/08/15 05:54:29;;;;;;;;;;;;;;;24.53;54.35;95346.53;5146784;27;2459;-57
2023/08/15 05:56:55;;;;;;;;;;;;;;;24.57;53.31;95351.50;5155097;27;1902;-57
2023/08/15 05:59:22;;;;;;;;;;;;;;;24.60;52.76;95343.66;5155117;27;1072;-56
2023/08/15 06:01:48;;;;;;;;;;;;;;;24.67;53.32;95349.78;5155279;27;996;-57
2023/08/15 06:04:14;;;;;;;;;;;;;;;24.82;52.65;95349.25;5155071;27;1075;-57
2023/08/15 06:06:40;;;;;;;;;;;;;;;24.85;52.46;95351.50;5144773;27;2800;-56
2023/08/15 06:09:06;;;;;;;;;;;;;;;24.91;52.65;95357.91;5113691;28;1052;-57
2023/08/15 06:11:33;;;;;;;;;;;;;;;25.00;51.01;95359.13;5114054;28;1035;-57
2023/08/15 06:13:59;;;;;;;;;;;;;;;25.16;50.69;95356.69;5113623;28;1048;-57
2023/08/15 06:16:26;;;;;;;;;;;;;;;25.23;51.22;95347.25;5112623;28;1993;-57
2023/08/15 06:18:53;;;;;;;;;;;;;;;25.31;50.74;95352.31;5113818;28;1032;-57
2023/08/15 06:21:19;;;;;;;;;;;;;;;25.40;49.82;95354.63;5132932;28;1323;-57
2023/08/15 06:23:45;;;;;;;;;;;;;;;25.33;48.40;95355.63;5133025;28;1052;-57
2023/08/15 06:26:12;;;;;;;;;;;;;;;25.31;48.21;95351.50;5132923;28;1020;-57
2023/08/15 06:28:38;;;;;;;;;;;;;;;25.25;48.58;95355.19;5134155;27;1040;-57
2023/08/15 06:31:04;;;;;;;;;;;;;;;25.30;49.08;95344.34;5134188;27;1055;-57
2023/08/15 06:33:31;;;;;;;;;;;;;;;25.50;48.55;95363.84;5133236;28;1006;-56
2023/08/15 06:35:57;;;;;;;;;;;;;;;25.61;47.40;95366.72;5134401;27;1024;-57
2023/08/15 06:38:23;;;;;;;;;;;;;;;25.73;48.14;95370.19;5133929;27;1918;-57
2023/08/15 06:40:49;;;;;;;;;;;;;;;25.82;48.46;95360.47;5132912;28;1040;-57
2023/08/15 06:43:15;;;;;;;;;;;;;;;25.90;47.49;95365.50;5133978;27;1232;-57
2023/08/15 06:45:42;;;;;;;;;;;;;;;26.07;47.11;95361.94;5134011;27;1004;-57
2023/08/15 06:48:08;;;;;;;;;;;;;;;26.22;47.42;95373.09;5134027;27;1075;-56
2023/08/15 06:50:34;;;;;;;;;;;;;;;26.26;47.11;95371.50;5133838;27;1043;-56
2023/08/15 06:53:00;;;;;;;;;;;;;;;26.36;46.22;95368.06;5134151;27;955;-59
2023/08/15 06:55:26;;;;;;;;;;;;;;;26.48;47.37;95378.88;5132988;28;1059;-59
2023/08/15 06:57:53;;;;;;;;;;;;;;;26.53;48.63;95369.91;5133660;27;1901;-59
2023/08/15 07:00:19;;;;;;;;;;;;;;;26.65;45.71;95376.94;5135427;27;1055;-59
2023/08/15 07:02:45;;;;;;;;;;;;;;;26.86;44.77;95382.63;5137733;27;1024;-58
2023/08/15 07:05:12;;;;;;;;;;;;;;;26.82;44.56;95376.84;5136435;27;1297;-56
2023/08/15 07:07:38;;;;;;;;;;;;;;;26.77;47.30;95367.72;5118181;27;2753;-59
2023/08/15 07:10:06;;;;;;;;;;;;;;;26.87;44.44;95368.66;5137625;27;2472;-58
2023/08/15 07:12:34;;;;;;;;;;;;;;;26.83;46.58;95361.22;5128685;27;2497;-58
2023/08/15 07:15:01;;;;;;;;;;;;;;;26.93;44.55;95358.56;5115694;28;1055;-56
2023/08/15 07:17:27;;;;;;;;;;;;;;;26.95;43.91;95359.13;5116862;28;1986;-57
2023/08/15 07:19:53;;;;;;;;;;;;;;;27.02;44.09;95361.69;5125143;27;1334;-56
2023/08/15 07:22:19;;;;;;;;;;;;;;;27.03;45.78;95357.84;5137259;27;1090;-55
2023/08/15 07:24:46;;;;;;;;;;;;;;;27.14;44.42;95348.63;5136073;27;1103;-56
2023/08/15 07:27:12;;;;;;;;;;;;;;;27.25;47.45;95346.81;5137139;27;1647;-54
2023/08/15 07:29:38;;;;;;;;;;;;;;;27.46;43.98;95356.88;5137314;27;1668;-56
2023/08/15 07:32:06;;;;;;;;;;;;;;;27.52;43.29;95355.00;5137374;27;1530;-57
2023/08/15 07:34:32;;;;;;;;;;;;;;;27.72;45.63;95354.31;5137065;27;1114;-57
2023/08/15 07:36:58;;;;;;;;;;;;;;;27.92;42.76;95355.56;5137130;27;1906;-56
2023/08/15 07:39:25;;;;;;;;;;;;;;;27.83;42.40;95361.53;5136059;27;1056;-57
2023/08/15 07:41:51;;;;;;;;;;;;;;;27.78;42.60;95358.75;5125051;27;2870;-57
2023/08/15 07:44:18;;;;;;;;;;;;;;;27.85;42.43;95362.09;5114977;28;1099;-57
2023/08/15 07:46:44;;;;;;;;;;;;;;;28.06;43.59;95350.41;5116615;28;1035;-57
2023/08/15 07:49:11;;;;;;;;;;;;;;;28.16;43.97;95350.50;5098326;28;1440;-57
2023/08/15 07:51:37;;;;;;;;;;;;;;;28.31;43.28;95350.56;5129902;27;2907;-56
2023/08/15 07:54:04;;;;;;;;;;;;;;;28.39;43.60;95351.97;5135612;27;1052;-57
2023/08/15 07:56:33;;;;;;;;;;;;;;;28.27;42.83;95346.69;5136687;27;1909;-57
2023/08/15 07:58:59;;;;;;;;;;;;;;;28.34;42.82;95346.44;5136608;27;1099;-56
2023/08/15 08:01:26;;;;;;;;;;;;;;;28.38;43.37;95337.41;5135254;27;1055;-57
2023/08/15 08:03:52;;;;;;;;;;;;;;;27.99;43.25;95342.44;5136572;27;1027;-56
2023/08/15 08:06:18;;;;;;;;;;;;;;;28.02;43.63;95330.88;5135322;27;977;-56
2023/08/15 08:08:44;;;;;;;;;;;;;;;28.16;45.27;95323.81;5135144;27;1092;-57
2023/08/15 08:11:11;;;;;;;;;;;;;;;27.98;45.05;95322.38;5135982;27;1133;-56
2023/08/15 08:13:38;;;;;;;;;;;;;;;28.35;45.24;95323.34;5130420;27;2588;-56
2023/08/15 08:16:04;;;;;;;;;;;;;;;28.61;45.30;95318.81;5115705;28;1107;-56
2023/08/15 08:18:31;;;;;;;;;;;;;;;28.67;44.53;95330.63;5115737;28;1987;-57
2023/08/15 08:21:00;;;;;;;;;;;;;;;28.67;43.38;95334.22;5111105;28;1649;-56
2023/08/15 08:23:32;;;;;;;;;;;;;;;28.63;44.65;95327.59;5115667;28;1567;-56
2023/08/15 08:26:04;;;;;;;;;;;;;;;28.80;44.83;95327.38;5114181;28;1746;-57
2023/08/15 08:28:36;;;;;;;;;;;;;;;28.58;44.47;95327.59;5115689;28;1558;-57
2023/08/15 08:31:09;;;;;;;;;;;;;;;28.70;45.92;95314.41;5114051;28;1607;-56
2023/08/15 08:33:41;;;;;;;;;;;;;;;28.76;44.91;95320.72;5115545;28;1674;-55
2023/08/15 08:36:13;;;;;;;;;;;;;;;28.82;47.76;95316.91;5113943;28;2247;-56
2023/08/15 08:38:40;;;;;;;;;;;;;;;28.95;47.76;95321.88;5115208;28;2065;-56
2023/08/15 08:41:06;;;;;;;;;;;;;;;28.89;45.78;95324.88;5117043;27;2440;-56
2023/08/15 08:43:33;;;;;;;;;;;;;;;28.84;46.98;95324.88;5113979;28;1048;-56
2023/08/15 08:46:03;;;;;;;;;;;;;;;28.41;46.32;95327.75;5132275;27;2503;-56
2023/08/15 08:48:31;;;;;;;;;;;;;;;28.41;46.51;95311.28;5135631;27;1043;-55
2023/08/15 08:50:57;;;;;;;;;;;;;;;28.32;47.38;95321.13;5134315;27;1040;-55
2023/08/15 08:53:24;;;;;;;;;;;;;;;28.29;46.91;95327.19;5135433;27;1032;-55
2023/08/15 08:55:52;;;;;;;;;;;;;;;28.04;51.66;95310.31;5135569;27;1087;-56
2023/08/15 08:58:20;;;;;;;;;;;;;;;28.31;50.24;95322.25;5133930;27;1973;-56
2023/08/15 09:00:47;;;;;;;;;;;;;;;28.18;50.02;95324.38;5135404;27;1043;-56
2023/08/15 09:03:14;;;;;;;;;;;;;;;28.01;48.36;95326.50;5134145;27;2525;-55
2023/08/15 09:05:41;;;;;;;;;;;;;;;27.65;48.91;95327.06;5135353;27;1078;-55
2023/08/15 09:08:07;;;;;;;;;;;;;;;27.51;51.68;95317.66;5135307;27;1067;-55
2023/08/15 09:10:33;;;;;;;;;;;;;;;27.52;50.67;95322.03;5135251;27;999;-55
2023/08/15 09:13:00;;;;;;;;;;;;;;;27.34;50.82;95323.31;5133963;27;1138;-55
2023/08/15 09:15:27;;;;;;;;;;;;;;;27.17;50.89;95322.59;5128454;27;2857;-56
2023/08/15 09:17:57;;;;;;;;;;;;;;;27.15;52.84;95316.50;5125628;27;4224;-55
2023/08/15 09:20:23;;;;;;;;;;;;;;;27.09;53.81;95315.66;5131939;27;2492;-55
2023/08/15 09:22:50;;;;;;;;;;;;;;;26.93;52.14;95314.69;5134377;27;1031;-56
2023/08/15 09:25:20;;;;;;;;;;;;;;;27.12;52.41;95312.38;5134887;27;1074;-55
2023/08/15 09:27:47;;;;;;;;;;;;;;;27.17;52.00;95308.88;5135066;27;1122;-55
2023/08/15 09:30:14;;;;;;;;;;;;;;;27.14;53.09;95304.72;5134823;27;1054;-56
2023/08/15 09:32:41;;;;;;;;;;;;;;;27.13;53.54;95314.03;5134877;27;1043;-55
2023/08/15 09:35:08;;;;;;;;;;;;;;;27.17;53.17;95304.19;5133434;27;2951;-55
2023/08/15 09:37:39;;;;;;;;;;;;;;;27.15;54.26;95306.38;5134697;27;1906;-55
2023/08/15 09:40:06;;;;;;;;;;;;;;;27.27;53.30;95303.47;5134794;27;1052;-55
2023/08/15 09:42:32;;;;;;;;;;;;;;;27.24;54.13;95292.97;5134498;27;1198;-56
2023/08/15 09:44:59;;;;;;;;;;;;;;;27.41;53.48;95296.44;5134644;27;1036;-55
2023/08/15 09:47:25;;;;;;;;;;;;;;;27.60;55.33;95298.75;5134579;27;1039;-55
2023/08/15 09:49:53;;;;;;;;;;;;;;;27.41;53.13;95299.19;5134790;27;1040;-55
2023/08/15 09:52:19;;;;;;;;;;;;;;;27.22;54.90;95296.00;5133232;27;2873;-55
2023/08/15 09:54:46;;;;;;;;;;;;;;;27.11;54.44;95299.75;5134482;27;1032;-55
2023/08/15 09:57:12;;;;;;;;;;;;;;;26.99;55.53;95288.94;5133113;27;2530;-55
2023/08/15 09:59:38;;;;;;;;;;;;;;;26.90;54.96;95287.78;5134506;27;1086;-55
2023/08/15 10:02:13;;;;;;;;;;;;;;;26.99;55.07;95294.41;5134379;27;1087;-55
2023/08/15 10:04:39;;;;;;;;;;;;;;;27.05;57.12;95298.88;5123474;28;2451;-55
2023/08/15 10:07:06;;;;;;;;;;;;;;;27.04;56.65;95283.50;5114109;28;1021;-55
2023/08/15 10:09:32;;;;;;;;;;;;;;;27.17;58.10;95289.66;5113716;28;1082;-55
2023/08/15 10:11:59;;;;;;;;;;;;;;;27.16;56.18;95294.28;5113895;28;1052;-56
2023/08/15 10:14:26;;;;;;;;;;;;;;;27.07;55.64;95293.97;5113721;28;965;-55
2023/08/15 10:16:52;;;;;;;;;;;;;;;26.99;55.26;95288.94;5113747;28;1910;-56
2023/08/15 10:19:18;;;;;;;;;;;;;;;26.86;58.34;95287.47;5116988;28;1384;-55
2023/08/15 10:21:47;;;;;;;;;;;;;;;26.81;54.78;95290.16;5121044;27;2982;-55
2023/08/15 10:24:13;;;;;;;;;;;;;;;26.88;58.56;95285.28;5113760;28;1019;-55
2023/08/15 10:26:39;;;;;;;;;;;;;;;26.97;58.06;95291.13;5115834;28;2431;-55
2023/08/15 10:29:05;;;;;;;;;;;;;;;27.11;57.74;95282.44;5113989;28;1023;-55
2023/08/15 10:31:37;;;;;;;;;;;;;;;26.97;58.46;95284.81;5113637;28;1440;-55
2023/08/15 10:34:10;;;;;;;;;;;;;;;26.91;58.04;95281.19;5115128;28;1679;-55
2023/08/15 10:36:42;;;;;;;;;;;;;;;26.93;56.00;95283.69;5118856;27;2996;-55
2023/08/15 10:39:09;;;;;;;;;;;;;;;26.99;59.94;95285.38;5117367;28;1619;-55
2023/08/15 10:41:36;;;;;;;;;;;;;;;27.06;58.97;95280.50;5117698;28;969;-55
2023/08/15 10:44:06;;;;;;;;;;;;;;;27.19;58.90;95277.31;5117502;28;1099;-56
2023/08/15 10:46:33;;;;;;;;;;;;;;;27.40;57.10;95278.31;5118691;27;2549;-56
2023/08/15 10:49:01;;;;;;;;;;;;;;;27.78;57.72;95281.03;5117811;28;1067;-55
2023/08/15 10:51:28;;;;;;;;;;;;;;;27.97;56.53;95281.41;5117589;28;964;-55
2023/08/15 10:54:02;;;;;;;;;;;;;;;28.05;54.68;95280.91;5117298;28;1084;-56
2023/08/15 10:56:29;;;;;;;;;;;;;;;28.21;55.26;95279.88;5118572;27;2986;-56
2023/08/15 10:58:56;;;;;;;;;;;;;;;28.34;56.86;95275.78;5117415;28;2035;-56
2023/08/15 11:01:23;;;;;;;;;;;;;;;28.43;56.70;95276.06;5117162;28;1854;-56
2023/08/15 11:03:51;;;;;;;;;;;;;;;28.42;54.79;95277.19;5133573;27;2479;-56
2023/08/15 11:06:17;;;;;;;;;;;;;;;28.36;56.84;95278.25;5122824;27;2989;-55
2023/08/15 11:08:53;;;;;;;;;;;;;;;28.18;54.56;95282.31;5117022;28;980;-56
2023/08/15 11:11:19;;;;;;;;;;;;;;;27.96;57.10;95283.31;5117542;27;2658;-55
2023/08/15 11:13:47;;;;;;;;;;;;;;;27.84;56.60;95279.94;5117219;28;1015;-55
2023/08/15 11:16:14;;;;;;;;;;;;;;;28.09;55.69;95273.75;5117131;28;967;-55
2023/08/15 11:18:40;;;;;;;;;;;;;;;28.35;54.45;95276.63;5116822;28;1910;-55
2023/08/15 11:21:11;;;;;;;;;;;;;;;28.47;54.82;95271.69;5134215;27;1685;-55
2023/08/15 11:23:37;;;;;;;;;;;;;;;28.49;55.09;95280.47;5136657;27;2813;-55
2023/08/15 11:26:05;;;;;;;;;;;;;;;28.56;53.36;95280.28;5135602;27;2906;-56
2023/08/15 11:28:31;;;;;;;;;;;;;;;28.65;53.50;95286.03;5137398;27;1079;-56
2023/08/15 11:30:58;;;;;;;;;;;;;;;28.79;52.84;95278.94;5137116;27;1080;-56
2023/08/15 11:33:24;;;;;;;;;;;;;;;28.93;54.38;95274.56;5137364;27;965;-56
2023/08/15 11:35:50;;;;;;;;;;;;;;;29.08;52.50;95278.41;5136174;27;1028;-56
2023/08/15 11:38:17;;;;;;;;;;;;;;;28.89;53.65;95267.91;5135179;27;2765;-55
2023/08/15 11:40:44;;;;;;;;;;;;;;;28.81;54.63;95268.47;5136403;27;2883;-55
2023/08/15 11:43:10;;;;;;;;;;;;;;;28.64;53.74;95276.97;5130938;27;3019;-56
2023/08/15 11:45:39;;;;;;;;;;;;;;;28.55;53.83;95265.69;5116626;27;2494;-56
2023/08/15 11:48:05;;;;;;;;;;;;;;;28.69;55.54;95276.19;5116251;28;1079;-56
2023/08/15 11:50:32;;;;;;;;;;;;;;;28.72;54.41;95270.97;5116278;28;1007;-56
2023/08/15 11:52:59;;;;;;;;;;;;;;;28.80;54.05;95267.66;5116170;28;1024;-56
2023/08/15 11:55:25;;;;;;;;;;;;;;;28.84;53.56;95270.69;5118169;27;2981;-55
2023/08/15 11:57:52;;;;;;;;;;;;;;;28.91;54.77;95259.41;5115934;28;1929;-56
2023/08/15 12:00:19;;;;;;;;;;;;;;;28.97;54.63;95267.41;5115978;28;965;-56
2023/08/15 12:02:46;;;;;;;;;;;;;;;28.81;54.95;95265.72;5116008;28;925;-56
2023/08/15 12:05:14;;;;;;;;;;;;;;;28.70;55.20;95264.06;5135394;27;2480;-56
2023/08/15 12:07:40;;;;;;;;;;;;;;;28.57;54.43;95266.25;5136472;27;1024;-56
2023/08/15 12:10:07;;;;;;;;;;;;;;;28.60;55.91;95268.44;5136664;27;1011;-55
2023/08/15 12:12:38;;;;;;;;;;;;;;;28.49;57.06;95252.16;5136278;27;1115;-56
2023/08/15 12:15:05;;;;;;;;;;;;;;;28.49;55.32;95255.72;5136613;27;983;-55
2023/08/15 12:17:31;;;;;;;;;;;;;;;28.63;55.00;95258.84;5136176;27;1906;-56
2023/08/15 12:19:58;;;;;;;;;;;;;;;28.52;56.28;95254.41;5128928;27;2429;-55
2023/08/15 12:22:24;;;;;;;;;;;;;;;28.42;54.46;95244.19;5117405;27;2837;-55
2023/08/15 12:24:50;;;;;;;;;;;;;;;28.41;55.46;95243.34;5115819;28;968;-55
2023/08/15 12:27:16;;;;;;;;;;;;;;;28.50;55.65;95245.59;5115711;28;1044;-55
2023/08/15 12:29:42;;;;;;;;;;;;;;;28.53;54.95;95245.06;5115730;28;909;-56
2023/08/15 12:32:08;;;;;;;;;;;;;;;28.69;55.29;95240.41;5115442;28;1035;-56
2023/08/15 12:34:34;;;;;;;;;;;;;;;28.81;55.80;95235.47;5115634;28;1228;-55
2023/08/15 12:37:00;;;;;;;;;;;;;;;28.80;54.46;95240.16;5135088;27;2732;-55
2023/08/15 12:39:26;;;;;;;;;;;;;;;28.69;54.51;95240.41;5135770;27;1106;-55
2023/08/15 12:41:52;;;;;;;;;;;;;;;28.68;55.10;95233.25;5136047;27;1022;-56
2023/08/15 12:44:18;;;;;;;;;;;;;;;28.80;56.13;95231.06;5116952;27;2966;-57
2023/08/15 12:46:44;;;;;;;;;;;;;;;28.84;55.00;95228.56;5116908;27;2962;-57
2023/08/15 12:49:10;;;;;;;;;;;;;;;28.71;55.81;95224.47;5115142;28;981;-57
2023/08/15 12:51:36;;;;;;;;;;;;;;;28.57;56.33;95222.25;5115265;28;992;-57
2023/08/15 12:54:02;;;;;;;;;;;;;;;28.58;55.02;95223.88;5113837;28;924;-57